Time;durP1;ratioP1;P1;durP2;ratioP2;P2;SDS_P1;SDS_P2;PMS_P1;PMS_P2;Temp;Humidity;BMP_temperature;BMP_pressure;BME280_temperature;BME280_humidity;BME280_pressure;Samples;Min_cycle;Max_cycle;Signal;HPM_P1;HPM_P2
2023/03/18 00:00:19;;;;;;;17.45;4.30;;;;;;;;;;4976171;28;20045;-62
2023/03/18 00:02:47;;;;;;;21.13;4.00;;;;;;;;;;4976634;28;20243;-64
2023/03/18 00:05:15;;;;;;;18.50;3.35;;;;;;;;;;4977895;28;20041;-63
2023/03/18 00:07:42;;;;;;;16.25;3.67;;;;;;;;;;4978905;28;20219;-63
2023/03/18 00:10:11;;;;;;;15.63;3.88;;;;;;;;;;4977022;28;20026;-62
2023/03/18 00:12:39;;;;;;;18.38;3.70;;;;;;;;;;4978647;28;20054;-63
2023/03/18 00:15:08;;;;;;;17.05;3.65;;;;;;;;;;4983952;28;20021;-62
2023/03/18 00:17:36;;;;;;;20.65;5.10;;;;;;;;;;4980371;28;20491;-62
2023/03/18 00:20:05;;;;;;;15.70;3.60;;;;;;;;;;4980778;28;20145;-63
2023/03/18 00:22:33;;;;;;;18.42;4.13;;;;;;;;;;4956968;28;20036;-63
2023/03/18 00:25:01;;;;;;;14.68;3.80;;;;;;;;;;4980907;28;20037;-67
2023/03/18 00:27:29;;;;;;;13.82;3.45;;;;;;;;;;4977355;28;20034;-64
2023/03/18 00:29:57;;;;;;;16.52;3.55;;;;;;;;;;4962921;28;20045;-63
2023/03/18 00:32:26;;;;;;;17.42;4.30;;;;;;;;;;4960871;28;20026;-63
2023/03/18 00:34:53;;;;;;;19.00;4.68;;;;;;;;;;4979770;28;20030;-64
2023/03/18 00:37:29;;;;;;;20.40;5.03;;;;;;;;;;4978315;28;20029;-64
2023/03/18 00:40:05;;;;;;;21.30;4.60;;;;;;;;;;4961768;28;20132;-62
2023/03/18 00:42:37;;;;;;;18.45;4.47;;;;;;;;;;4975018;28;20279;-62
2023/03/18 00:45:06;;;;;;;21.90;5.03;;;;;;;;;;4978967;28;20417;-62
2023/03/18 00:47:34;;;;;;;16.10;4.38;;;;;;;;;;4975879;28;20044;-62
2023/03/18 00:50:02;;;;;;;20.27;4.45;;;;;;;;;;4982580;28;20037;-62
2023/03/18 00:52:29;;;;;;;18.38;4.18;;;;;;;;;;4971747;28;20116;-62
2023/03/18 00:54:57;;;;;;;16.65;4.57;;;;;;;;;;4977774;28;20026;-63
2023/03/18 00:57:24;;;;;;;16.13;4.05;;;;;;;;;;4980623;28;20036;-63
2023/03/18 00:59:51;;;;;;;18.30;4.55;;;;;;;;;;4977234;28;20166;-63
2023/03/18 01:02:19;;;;;;;19.27;5.13;;;;;;;;;;4981881;28;20054;-63
2023/03/18 01:04:46;;;;;;;21.25;4.47;;;;;;;;;;4977059;28;20029;-63
2023/03/18 01:07:14;;;;;;;17.65;4.15;;;;;;;;;;4980595;28;20042;-63
2023/03/18 01:09:43;;;;;;;20.85;4.53;;;;;;;;;;4958779;28;20773;-63
2023/03/18 01:12:11;;;;;;;17.88;4.55;;;;;;;;;;4984179;28;20046;-63
2023/03/18 01:14:39;;;;;;;20.52;4.43;;;;;;;;;;4976616;28;20021;-63
2023/03/18 01:17:07;;;;;;;21.33;4.90;;;;;;;;;;4962836;28;20026;-63
2023/03/18 01:19:35;;;;;;;19.00;5.10;;;;;;;;;;4976733;28;20115;-63
2023/03/18 01:22:03;;;;;;;18.50;4.85;;;;;;;;;;4978467;28;20113;-63
2023/03/18 01:24:30;;;;;;;19.42;4.60;;;;;;;;;;4958067;28;20064;-63
2023/03/18 01:26:57;;;;;;;20.95;4.82;;;;;;;;;;4976586;28;20552;-62
2023/03/18 01:29:24;;;;;;;17.48;4.07;;;;;;;;;;4956795;28;20040;-63
2023/03/18 01:31:53;;;;;;;23.02;5.70;;;;;;;;;;4982815;28;20037;-63
2023/03/18 01:34:21;;;;;;;24.75;6.40;;;;;;;;;;4976705;28;20032;-63
2023/03/18 01:36:48;;;;;;;20.38;5.85;;;;;;;;;;4971750;28;20030;-63
2023/03/18 01:39:16;;;;;;;26.05;5.63;;;;;;;;;;4977982;28;20471;-63
2023/03/18 01:41:43;;;;;;;22.60;5.93;;;;;;;;;;4974685;28;20184;-63
2023/03/18 01:44:19;;;;;;;20.85;6.18;;;;;;;;;;4977936;28;20057;-63
2023/03/18 01:46:48;;;;;;;25.33;6.10;;;;;;;;;;4980455;28;20013;-63
2023/03/18 01:49:20;;;;;;;26.38;7.30;;;;;;;;;;4961366;28;20029;-63
2023/03/18 01:52:07;;;;;;;25.42;6.97;;;;;;;;;;4979235;28;20038;-63
2023/03/18 01:54:41;;;;;;;27.95;8.13;;;;;;;;;;4976522;28;20666;-63
2023/03/18 01:57:09;;;;;;;27.30;9.88;;;;;;;;;;4975880;28;20031;-64
2023/03/18 01:59:40;;;;;;;27.70;9.45;;;;;;;;;;4977966;28;20116;-63
2023/03/18 02:02:11;;;;;;;26.20;10.32;;;;;;;;;;4984098;28;20029;-63
2023/03/18 02:04:44;;;;;;;29.83;9.55;;;;;;;;;;4957154;28;20084;-63
2023/03/18 02:07:14;;;;;;;29.42;9.45;;;;;;;;;;4980294;28;20030;-64
2023/03/18 02:09:41;;;;;;;32.47;10.88;;;;;;;;;;4957759;28;20554;-63
2023/03/18 02:12:10;;;;;;;28.20;10.52;;;;;;;;;;4965741;28;20196;-63
2023/03/18 02:14:37;;;;;;;26.02;9.80;;;;;;;;;;4957179;28;20034;-63
2023/03/18 02:17:09;;;;;;;28.95;9.18;;;;;;;;;;4979706;28;20559;-63
2023/03/18 02:19:46;;;;;;;26.83;9.00;;;;;;;;;;4961411;28;20506;-63
2023/03/18 02:22:32;;;;;;;26.65;8.30;;;;;;;;;;4975839;28;20037;-63
2023/03/18 02:25:16;;;;;;;27.15;8.15;;;;;;;;;;4974061;28;20021;-62
2023/03/18 02:27:50;;;;;;;21.92;6.72;;;;;;;;;;4973977;28;20040;-62
2023/03/18 02:30:23;;;;;;;23.48;7.50;;;;;;;;;;4976630;28;20099;-62
2023/03/18 02:32:51;;;;;;;20.88;6.32;;;;;;;;;;4983824;28;20652;-62
2023/03/18 02:35:19;;;;;;;21.55;6.00;;;;;;;;;;4954630;28;20049;-63
2023/03/18 02:37:46;;;;;;;21.50;5.90;;;;;;;;;;4976963;28;20747;-62
2023/03/18 02:40:15;;;;;;;23.48;6.07;;;;;;;;;;4981359;28;20030;-62
2023/03/18 02:42:45;;;;;;;22.38;5.88;;;;;;;;;;4982807;28;20137;-62
2023/03/18 02:45:33;;;;;;;21.27;5.88;;;;;;;;;;4975632;28;20176;-62
2023/03/18 02:48:02;;;;;;;20.45;5.90;;;;;;;;;;4959718;28;20057;-62
2023/03/18 02:50:29;;;;;;;24.23;6.72;;;;;;;;;;4976307;28;20038;-62
2023/03/18 02:52:58;;;;;;;19.95;6.22;;;;;;;;;;4979038;28;20038;-63
2023/03/18 02:55:26;;;;;;;20.10;5.65;;;;;;;;;;4976129;28;20034;-62
2023/03/18 02:57:53;;;;;;;20.30;5.90;;;;;;;;;;4977771;28;20030;-63
2023/03/18 03:00:21;;;;;;;19.67;5.45;;;;;;;;;;4962983;28;20483;-62
2023/03/18 03:02:48;;;;;;;19.33;5.75;;;;;;;;;;4964180;28;20045;-62
2023/03/18 03:05:16;;;;;;;16.35;4.68;;;;;;;;;;4977961;28;20736;-62
2023/03/18 03:07:43;;;;;;;17.90;5.20;;;;;;;;;;4974819;28;20058;-62
2023/03/18 03:10:11;;;;;;;20.33;4.93;;;;;;;;;;4982232;28;20038;-62
2023/03/18 03:12:40;;;;;;;22.35;5.47;;;;;;;;;;4977236;28;20046;-62
2023/03/18 03:15:07;;;;;;;19.35;4.90;;;;;;;;;;4958056;28;20447;-62
2023/03/18 03:17:35;;;;;;;20.65;5.45;;;;;;;;;;4960141;28;20034;-62
2023/03/18 03:20:05;;;;;;;16.90;4.43;;;;;;;;;;4978609;28;20266;-62
2023/03/18 03:22:33;;;;;;;16.95;4.20;;;;;;;;;;4973822;28;20388;-62
2023/03/18 03:25:00;;;;;;;17.88;4.30;;;;;;;;;;4980224;28;20212;-62
2023/03/18 03:27:28;;;;;;;18.63;4.70;;;;;;;;;;4975933;28;20034;-62
2023/03/18 03:29:55;;;;;;;17.05;4.18;;;;;;;;;;4984455;28;20034;-62
2023/03/18 03:32:22;;;;;;;16.35;4.28;;;;;;;;;;4977227;28;20026;-62
2023/03/18 03:34:50;;;;;;;14.43;4.47;;;;;;;;;;4981708;28;20465;-62
2023/03/18 03:37:17;;;;;;;15.75;3.97;;;;;;;;;;4981263;28;20570;-62
2023/03/18 03:39:46;;;;;;;16.55;4.45;;;;;;;;;;4976857;28;20372;-62
2023/03/18 03:42:13;;;;;;;17.50;5.03;;;;;;;;;;4985856;28;20101;-62
2023/03/18 03:44:41;;;;;;;17.45;5.32;;;;;;;;;;4982525;28;21361;-62
2023/03/18 03:47:07;;;;;;;20.15;4.55;;;;;;;;;;4983411;28;20022;-62
2023/03/18 03:49:34;;;;;;;;;;;;;;;;;;4987960;28;20041;-62
2023/03/18 03:52:02;;;;;;;18.90;5.20;;;;;;;;;;4982385;28;20012;-62
2023/03/18 03:54:30;;;;;;;17.92;5.85;;;;;;;;;;4985870;28;20029;-62
2023/03/18 03:56:58;;;;;;;17.95;5.25;;;;;;;;;;4987933;28;20648;-62
2023/03/18 03:59:26;;;;;;;20.77;5.43;;;;;;;;;;4980035;28;20036;-63
2023/03/18 04:01:53;;;;;;;19.85;6.00;;;;;;;;;;4967172;28;20438;-62
2023/03/18 04:04:21;;;;;;;21.75;5.78;;;;;;;;;;4981754;28;20030;-63
2023/03/18 04:06:49;;;;;;;15.45;4.53;;;;;;;;;;4978989;28;20320;-62
2023/03/18 04:09:16;;;;;;;22.95;5.95;;;;;;;;;;4963252;28;20030;-62
2023/03/18 04:11:43;;;;;;;24.00;6.40;;;;;;;;;;4980306;28;20199;-62
2023/03/18 04:14:11;;;;;;;16.85;5.60;;;;;;;;;;4976613;28;20030;-62
2023/03/18 04:16:38;;;;;;;20.60;6.20;;;;;;;;;;4982205;28;20035;-62
2023/03/18 04:19:06;;;;;;;18.10;5.25;;;;;;;;;;4982478;28;20027;-62
2023/03/18 04:21:33;;;;;;;15.73;4.80;;;;;;;;;;4976034;28;20366;-64
2023/03/18 04:24:02;;;;;;;21.73;5.28;;;;;;;;;;4963456;28;20258;-62
2023/03/18 04:26:30;;;;;;;21.25;5.47;;;;;;;;;;4977985;28;20481;-62
2023/03/18 04:28:58;;;;;;;17.33;4.55;;;;;;;;;;4983034;28;20104;-62
2023/03/18 04:31:25;;;;;;;15.23;4.45;;;;;;;;;;4979939;28;20140;-62
2023/03/18 04:33:52;;;;;;;20.88;4.55;;;;;;;;;;4983262;28;20026;-62
2023/03/18 04:36:19;;;;;;;;;;;;;;;;;;4982689;28;20109;-62
2023/03/18 04:38:48;;;;;;;19.58;4.93;;;;;;;;;;4980763;28;19936;-62
2023/03/18 04:41:14;;;;;;;19.00;4.75;;;;;;;;;;4979236;28;20496;-62
2023/03/18 04:43:43;;;;;;;;;;;;;;;;;;4978384;28;20483;-62
2023/03/18 04:46:11;;;;;;;14.15;4.13;;;;;;;;;;4987384;28;20008;-62
2023/03/18 04:48:38;;;;;;;19.38;4.78;;;;;;;;;;4980551;28;20076;-62
2023/03/18 04:51:09;;;;;;;16.08;4.28;;;;;;;;;;4985286;28;20072;-62
2023/03/18 04:53:36;;;;;;;17.55;4.45;;;;;;;;;;4978646;28;20036;-62
2023/03/18 04:56:04;;;;;;;17.83;4.90;;;;;;;;;;4979274;28;20389;-62
2023/03/18 04:58:31;;;;;;;16.40;4.03;;;;;;;;;;4963814;28;20056;-62
2023/03/18 05:00:58;;;;;;;19.63;4.68;;;;;;;;;;4980523;28;20040;-62
2023/03/18 05:03:26;;;;;;;17.88;4.60;;;;;;;;;;4961059;28;20030;-62
2023/03/18 05:05:53;;;;;;;22.60;5.28;;;;;;;;;;4981774;28;20036;-62
2023/03/18 05:08:21;;;;;;;25.38;6.13;;;;;;;;;;4984810;28;20022;-62
2023/03/18 05:10:51;;;;;;;19.35;5.05;;;;;;;;;;4977857;28;20037;-63
2023/03/18 05:13:18;;;;;;;20.58;4.90;;;;;;;;;;4982875;28;20048;-63
2023/03/18 05:15:46;;;;;;;23.88;5.22;;;;;;;;;;4980223;28;20030;-62
2023/03/18 05:18:15;;;;;;;19.02;4.75;;;;;;;;;;4958353;28;20564;-63
2023/03/18 05:20:43;;;;;;;19.00;4.20;;;;;;;;;;4980576;28;20517;-62
2023/03/18 05:23:10;;;;;;;21.17;4.88;;;;;;;;;;4981005;28;20056;-62
2023/03/18 05:25:37;;;;;;;18.15;4.70;;;;;;;;;;4959656;28;20050;-62
2023/03/18 05:28:05;;;;;;;18.33;5.03;;;;;;;;;;4979721;28;20038;-62
2023/03/18 05:30:31;;;;;;;20.42;5.22;;;;;;;;;;4974651;28;20049;-62
2023/03/18 05:32:57;;;;;;;24.75;5.72;;;;;;;;;;4981033;28;20071;-62
2023/03/18 05:35:24;;;;;;;;;;;;;;;;;;4980881;28;20072;-63
2023/03/18 05:37:52;;;;;;;20.65;4.63;;;;;;;;;;4978623;28;20789;-63
2023/03/18 05:40:20;;;;;;;20.02;4.53;;;;;;;;;;4977310;28;20029;-62
2023/03/18 05:42:49;;;;;;;21.15;4.38;;;;;;;;;;4981970;28;20049;-63
2023/03/18 05:45:16;;;;;;;20.45;4.93;;;;;;;;;;4980621;28;20054;-62
2023/03/18 05:47:44;;;;;;;21.65;4.82;;;;;;;;;;4979194;28;20039;-63
2023/03/18 05:50:13;;;;;;;17.48;4.72;;;;;;;;;;4974450;28;20061;-62
2023/03/18 05:52:41;;;;;;;17.58;4.05;;;;;;;;;;4976503;28;20100;-62
2023/03/18 05:55:12;;;;;;;24.02;5.05;;;;;;;;;;4975127;28;20467;-62
2023/03/18 05:57:40;;;;;;;18.67;4.57;;;;;;;;;;4976901;28;20041;-62
2023/03/18 06:00:08;;;;;;;17.25;4.68;;;;;;;;;;4977461;28;20064;-63
2023/03/18 06:02:36;;;;;;;20.77;4.53;;;;;;;;;;4976944;28;20034;-63
2023/03/18 06:05:04;;;;;;;22.23;4.82;;;;;;;;;;4983471;28;20030;-63
2023/03/18 06:07:31;;;;;;;22.20;4.95;;;;;;;;;;4977452;28;20843;-63
2023/03/18 06:09:58;;;;;;;22.85;5.32;;;;;;;;;;4978144;28;20041;-63
2023/03/18 06:12:27;;;;;;;17.85;4.47;;;;;;;;;;4980906;28;20046;-62
2023/03/18 06:14:54;;;;;;;23.90;5.00;;;;;;;;;;4960838;28;20391;-62
2023/03/18 06:17:21;;;;;;;18.48;4.70;;;;;;;;;;4979546;28;20045;-64
2023/03/18 06:19:51;;;;;;;19.48;4.50;;;;;;;;;;4977284;28;20092;-62
2023/03/18 06:22:18;;;;;;;16.83;5.60;;;;;;;;;;4982458;28;20407;-61
2023/03/18 06:24:45;;;;;;;22.55;6.13;;;;;;;;;;4979588;28;20545;-62
2023/03/18 06:27:13;;;;;;;19.30;5.25;;;;;;;;;;4978435;28;20081;-63
2023/03/18 06:29:40;;;;;;;20.67;5.80;;;;;;;;;;4977955;28;20030;-62
2023/03/18 06:32:07;;;;;;;22.05;5.72;;;;;;;;;;4981237;28;20143;-63
2023/03/18 06:34:35;;;;;;;19.30;6.05;;;;;;;;;;4974834;28;20078;-62
2023/03/18 06:37:01;;;;;;;21.13;7.20;;;;;;;;;;4979834;28;20030;-63
2023/03/18 06:39:28;;;;;;;23.67;7.95;;;;;;;;;;4977274;28;20117;-63
2023/03/18 06:41:56;;;;;;;25.52;7.40;;;;;;;;;;4975947;28;20706;-61
2023/03/18 06:44:24;;;;;;;25.27;9.50;;;;;;;;;;4979697;28;20488;-64
2023/03/18 06:46:52;;;;;;;27.67;7.88;;;;;;;;;;4981284;28;20161;-63
2023/03/18 06:49:20;;;;;;;23.25;7.25;;;;;;;;;;4977759;28;20085;-63
2023/03/18 06:51:48;;;;;;;22.40;6.88;;;;;;;;;;4977098;28;20034;-63
2023/03/18 06:54:15;;;;;;;20.08;6.68;;;;;;;;;;4978772;28;20037;-63
2023/03/18 06:56:43;;;;;;;27.23;7.55;;;;;;;;;;4982136;28;20033;-64
2023/03/18 06:59:11;;;;;;;28.77;8.43;;;;;;;;;;4980497;28;20555;-63
2023/03/18 07:01:40;;;;;;;24.80;8.80;;;;;;;;;;4977348;28;20038;-63
2023/03/18 07:04:07;;;;;;;28.20;10.07;;;;;;;;;;4980313;28;20981;-63
2023/03/18 07:06:35;;;;;;;25.48;7.50;;;;;;;;;;4960632;28;20391;-63
2023/03/18 07:09:03;;;;;;;24.13;7.57;;;;;;;;;;4983052;28;20033;-64
2023/03/18 07:11:30;;;;;;;20.40;5.63;;;;;;;;;;4983723;28;20049;-61
2023/03/18 07:13:58;;;;;;;23.30;6.40;;;;;;;;;;4982146;28;20057;-63
2023/03/18 07:16:25;;;;;;;20.70;5.65;;;;;;;;;;4978576;28;20034;-63
2023/03/18 07:18:53;;;;;;;20.52;5.88;;;;;;;;;;4963854;28;20071;-62
2023/03/18 07:21:22;;;;;;;24.60;6.70;;;;;;;;;;4966910;28;20810;-63
2023/03/18 07:23:48;;;;;;;21.38;6.03;;;;;;;;;;4985572;28;20064;-63
2023/03/18 07:26:15;;;;;;;;;;;;;;;;;;4982984;28;20123;-63
2023/03/18 07:28:42;;;;;;;23.27;6.07;;;;;;;;;;4980296;28;20584;-64
2023/03/18 07:31:08;;;;;;;26.45;6.15;;;;;;;;;;4985266;28;20104;-64
2023/03/18 07:33:36;;;;;;;;;;;;;;;;;;4982414;28;20030;-63
2023/03/18 07:36:03;;;;;;;;;;;;;;;;;;4981096;28;19917;-65
2023/03/18 07:38:31;;;;;;;49.88;26.27;;;;;;;;;;4960847;28;19913;-64
2023/03/18 07:40:59;;;;;;;62.15;34.83;;;;;;;;;;4981743;28;20029;-64
2023/03/18 07:43:26;;;;;;;50.30;25.55;;;;;;;;;;4981563;28;20555;-63
2023/03/18 07:45:54;;;;;;;55.08;29.33;;;;;;;;;;4985163;28;20175;-62
2023/03/18 07:48:22;;;;;;;42.15;19.17;;;;;;;;;;4956252;28;20034;-65
2023/03/18 07:50:49;;;;;;;29.55;10.98;;;;;;;;;;4983059;28;20061;-64
2023/03/18 07:53:17;;;;;;;32.97;12.10;;;;;;;;;;4982264;28;20040;-64
2023/03/18 07:55:45;;;;;;;26.75;6.57;;;;;;;;;;4978305;28;20030;-62
2023/03/18 07:58:12;;;;;;;25.55;8.57;;;;;;;;;;4962206;28;20512;-62
2023/03/18 08:00:39;;;;;;;20.88;6.20;;;;;;;;;;4976363;28;20126;-62
2023/03/18 08:03:08;;;;;;;20.50;6.13;;;;;;;;;;4982045;28;20040;-63
2023/03/18 08:05:35;;;;;;;23.90;6.72;;;;;;;;;;4978293;28;20497;-64
2023/03/18 08:08:03;;;;;;;23.38;6.68;;;;;;;;;;4980007;28;20036;-63
2023/03/18 08:10:31;;;;;;;20.38;5.80;;;;;;;;;;4978447;28;20127;-65
2023/03/18 08:12:58;;;;;;;19.10;5.13;;;;;;;;;;4985369;28;20049;-63
2023/03/18 08:15:26;;;;;;;19.52;4.63;;;;;;;;;;4982680;28;20104;-65
2023/03/18 08:17:53;;;;;;;21.90;4.93;;;;;;;;;;4987037;28;20022;-64
2023/03/18 08:20:21;;;;;;;23.10;5.45;;;;;;;;;;4986858;28;22106;-64
2023/03/18 08:22:49;;;;;;;23.35;4.72;;;;;;;;;;4980382;28;20128;-66
2023/03/18 08:25:16;;;;;;;19.77;6.15;;;;;;;;;;4974917;28;20038;-64
2023/03/18 08:27:42;;;;;;;23.25;4.45;;;;;;;;;;4982585;28;20088;-65
2023/03/18 08:30:08;;;;;;;;;;;;;;;;;;4981366;28;20564;-64
2023/03/18 08:32:36;;;;;;;18.42;4.55;;;;;;;;;;4966051;28;19916;-64
2023/03/18 08:35:04;;;;;;;18.05;4.50;;;;;;;;;;4977165;28;20060;-63
2023/03/18 08:37:31;;;;;;;20.25;4.25;;;;;;;;;;4976000;28;20589;-65
2023/03/18 08:39:59;;;;;;;22.25;4.50;;;;;;;;;;4980922;28;20037;-65
2023/03/18 08:42:26;;;;;;;21.98;4.57;;;;;;;;;;4973613;28;20476;-65
2023/03/18 08:44:54;;;;;;;21.48;5.60;;;;;;;;;;4975486;28;20034;-65
2023/03/18 08:47:23;;;;;;;18.75;4.32;;;;;;;;;;4964259;28;20038;-64
2023/03/18 08:49:54;;;;;;;18.77;4.70;;;;;;;;;;4985401;28;20072;-64
2023/03/18 08:52:21;;;;;;;19.70;5.15;;;;;;;;;;4962528;28;20796;-65
2023/03/18 08:54:48;;;;;;;16.48;4.15;;;;;;;;;;4979716;28;20121;-65
2023/03/18 08:57:15;;;;;;;18.20;4.78;;;;;;;;;;4984222;28;20025;-64
2023/03/18 08:59:41;;;;;;;17.05;5.38;;;;;;;;;;4963198;28;20028;-64
2023/03/18 09:02:08;;;;;;;;;;;;;;;;;;4963768;28;20060;-64
2023/03/18 09:04:36;;;;;;;18.85;4.57;;;;;;;;;;4976489;28;19914;-64
2023/03/18 09:07:04;;;;;;;17.33;4.03;;;;;;;;;;4964912;28;20112;-65
2023/03/18 09:09:31;;;;;;;18.10;4.28;;;;;;;;;;4978670;28;20336;-65
2023/03/18 09:11:58;;;;;;;16.75;5.22;;;;;;;;;;4983375;28;20103;-64
2023/03/18 09:14:26;;;;;;;20.08;6.85;;;;;;;;;;4977908;28;20030;-67
2023/03/18 09:16:54;;;;;;;23.80;8.98;;;;;;;;;;4981798;28;20031;-64
2023/03/18 09:19:21;;;;;;;16.52;5.20;;;;;;;;;;4984024;28;20029;-64
2023/03/18 09:21:49;;;;;;;18.42;6.00;;;;;;;;;;4960293;28;20030;-66
2023/03/18 09:24:16;;;;;;;18.70;5.88;;;;;;;;;;4982075;28;20077;-67
2023/03/18 09:26:43;;;;;;;19.15;5.78;;;;;;;;;;4958933;28;20029;-64
2023/03/18 09:29:11;;;;;;;24.40;6.00;;;;;;;;;;4978144;28;20771;-66
2023/03/18 09:31:39;;;;;;;16.88;3.85;;;;;;;;;;4978833;28;20034;-65
2023/03/18 09:34:08;;;;;;;18.98;3.70;;;;;;;;;;4977226;28;20521;-64
2023/03/18 09:36:36;;;;;;;15.80;3.55;;;;;;;;;;4980674;28;20033;-65
2023/03/18 09:39:04;;;;;;;19.65;4.25;;;;;;;;;;4980693;28;20393;-64
2023/03/18 09:41:41;;;;;;;17.00;3.47;;;;;;;;;;4974032;28;20052;-65
2023/03/18 09:44:21;;;;;;;15.15;3.47;;;;;;;;;;4980183;28;20037;-65
2023/03/18 09:46:57;;;;;;;15.48;3.38;;;;;;;;;;4981791;28;20108;-64
2023/03/18 09:49:32;;;;;;;14.85;3.90;;;;;;;;;;4979882;28;20038;-65
2023/03/18 09:52:17;;;;;;;17.27;4.13;;;;;;;;;;4975864;28;20159;-64
2023/03/18 09:54:51;;;;;;;15.85;4.50;;;;;;;;;;4978827;28;20563;-66
2023/03/18 09:57:22;;;;;;;21.20;4.90;;;;;;;;;;4960747;28;20037;-67
2023/03/18 09:59:57;;;;;;;17.33;4.03;;;;;;;;;;4977258;28;20034;-66
2023/03/18 10:02:33;;;;;;;15.23;4.00;;;;;;;;;;4973495;28;20057;-66
2023/03/18 10:05:09;;;;;;;17.42;4.03;;;;;;;;;;4962920;28;20789;-65
2023/03/18 10:07:40;;;;;;;16.33;4.43;;;;;;;;;;4956711;28;20037;-65
2023/03/18 10:10:10;;;;;;;16.95;4.32;;;;;;;;;;4982920;28;20065;-65
2023/03/18 10:12:44;;;;;;;15.55;3.80;;;;;;;;;;4981813;28;20069;-66
2023/03/18 10:15:29;;;;;;;15.82;3.78;;;;;;;;;;4959394;28;20647;-65
2023/03/18 10:18:17;;;;;;;16.15;4.00;;;;;;;;;;4966138;28;20408;-65
2023/03/18 10:21:03;;;;;;;14.52;4.28;;;;;;;;;;4973517;28;20103;-66
2023/03/18 10:23:51;;;;;;;15.88;4.13;;;;;;;;;;4958725;28;20029;-64
2023/03/18 10:26:30;;;;;;;14.88;4.68;;;;;;;;;;4960838;28;20570;-65
2023/03/18 10:29:10;;;;;;;20.13;5.00;;;;;;;;;;4968174;28;20045;-65
2023/03/18 10:31:42;;;;;;;22.40;7.78;;;;;;;;;;4964871;28;20080;-64
2023/03/18 10:34:17;;;;;;;23.00;7.13;;;;;;;;;;4974789;28;20141;-63
2023/03/18 10:37:10;;;;;;;15.50;5.30;;;;;;;;;;4961381;28;20468;-65
2023/03/18 10:39:38;;;;;;;20.85;5.28;;;;;;;;;;4970547;28;20050;-65
2023/03/18 10:42:18;;;;;;;15.13;4.13;;;;;;;;;;4983431;28;20026;-65
2023/03/18 10:44:46;;;;;;;11.63;3.78;;;;;;;;;;4978385;28;20033;-65
2023/03/18 10:47:22;;;;;;;18.65;4.82;;;;;;;;;;4980644;28;20053;-64
2023/03/18 10:50:10;;;;;;;15.57;4.43;;;;;;;;;;4963683;28;20038;-66
2023/03/18 10:52:57;;;;;;;15.48;3.85;;;;;;;;;;4959385;28;20043;-64
2023/03/18 10:55:27;;;;;;;15.38;5.05;;;;;;;;;;4983504;28;20030;-65
2023/03/18 10:57:54;;;;;;;13.25;4.57;;;;;;;;;;4984852;28;20037;-64
2023/03/18 11:00:26;;;;;;;14.63;4.07;;;;;;;;;;4981700;28;20049;-65
2023/03/18 11:02:54;;;;;;;17.63;4.60;;;;;;;;;;4984465;28;20109;-65
2023/03/18 11:05:32;;;;;;;13.98;3.92;;;;;;;;;;4981295;28;20728;-66
2023/03/18 11:08:07;;;;;;;17.63;4.43;;;;;;;;;;4982872;28;20034;-64
2023/03/18 11:10:40;;;;;;;14.85;4.38;;;;;;;;;;4979964;28;20039;-65
2023/03/18 11:13:07;;;;;;;14.95;4.00;;;;;;;;;;4981811;28;20380;-65
2023/03/18 11:15:41;;;;;;;16.55;4.80;;;;;;;;;;4977844;28;20117;-65
2023/03/18 11:18:13;;;;;;;17.90;4.50;;;;;;;;;;4980533;28;20372;-67
2023/03/18 11:20:43;;;;;;;14.63;3.80;;;;;;;;;;4980765;28;20152;-66
2023/03/18 11:23:47;;;;;;;15.02;3.83;;;;;;;;;;4985193;28;20029;-62
2023/03/18 11:26:25;;;;;;;11.65;3.20;;;;;;;;;;4960389;28;20076;-64
2023/03/18 11:28:57;;;;;;;12.77;3.30;;;;;;;;;;4983108;28;20448;-65
2023/03/18 11:31:26;;;;;;;16.35;3.53;;;;;;;;;;4978749;28;20045;-64
2023/03/18 11:33:58;;;;;;;15.55;4.10;;;;;;;;;;4981578;28;20478;-66
2023/03/18 11:36:27;;;;;;;14.77;4.00;;;;;;;;;;4984784;28;20609;-64
2023/03/18 11:39:01;;;;;;;13.30;3.70;;;;;;;;;;4960872;28;20030;-64
2023/03/18 11:41:29;;;;;;;15.50;3.58;;;;;;;;;;4979905;28;20038;-64
2023/03/18 11:43:58;;;;;;;12.95;4.03;;;;;;;;;;4984937;28;20030;-67
2023/03/18 11:46:30;;;;;;;17.13;4.60;;;;;;;;;;4982252;28;20152;-66
2023/03/18 11:48:58;;;;;;;13.30;4.30;;;;;;;;;;4979011;28;20061;-64
2023/03/18 11:51:46;;;;;;;13.77;4.45;;;;;;;;;;4979333;28;20046;-64
2023/03/18 11:54:31;;;;;;;13.20;3.95;;;;;;;;;;4971167;28;20716;-65
2023/03/18 11:57:00;;;;;;;15.20;4.88;;;;;;;;;;4982654;28;20493;-65
2023/03/18 11:59:48;;;;;;;13.77;4.57;;;;;;;;;;4977611;28;20690;-65
2023/03/18 12:02:38;;;;;;;15.80;5.60;;;;;;;;;;4963079;28;20032;-66
2023/03/18 12:05:07;;;;;;;14.98;4.40;;;;;;;;;;4984092;28;20026;-66
2023/03/18 12:07:48;;;;;;;16.35;4.10;;;;;;;;;;4957832;28;20484;-65
2023/03/18 12:10:34;;;;;;;15.85;3.63;;;;;;;;;;4980473;28;20037;-67
2023/03/18 12:13:15;;;;;;;13.00;3.88;;;;;;;;;;4959271;28;20477;-66
2023/03/18 12:16:03;;;;;;;14.07;4.18;;;;;;;;;;4957690;28;20035;-66
2023/03/18 12:18:48;;;;;;;15.57;3.97;;;;;;;;;;4956686;28;20037;-67
2023/03/18 12:21:34;;;;;;;13.82;4.38;;;;;;;;;;4959234;28;20042;-66
2023/03/18 12:24:19;;;;;;;14.30;3.83;;;;;;;;;;4963305;28;20042;-66
2023/03/18 12:26:54;;;;;;;13.20;4.30;;;;;;;;;;4937410;28;20038;-65
2023/03/18 12:29:36;;;;;;;15.55;4.28;;;;;;;;;;4962589;28;20370;-64
2023/03/18 12:32:21;;;;;;;14.63;4.20;;;;;;;;;;4959371;28;20042;-65
2023/03/18 12:35:01;;;;;;;14.73;4.50;;;;;;;;;;4958601;28;20031;-65
2023/03/18 12:37:46;;;;;;;14.05;4.32;;;;;;;;;;4959086;28;20117;-66
2023/03/18 12:40:32;;;;;;;13.70;4.05;;;;;;;;;;4960037;28;20038;-66
2023/03/18 12:43:17;;;;;;;13.40;4.07;;;;;;;;;;4948136;28;20089;-66
2023/03/18 12:45:47;;;;;;;15.65;4.82;;;;;;;;;;4957946;28;20042;-65
2023/03/18 12:48:22;;;;;;;14.43;5.00;;;;;;;;;;4940989;28;20035;-65
2023/03/18 12:50:53;;;;;;;16.33;4.30;;;;;;;;;;4963184;28;20536;-65
2023/03/18 12:53:31;;;;;;;13.43;4.75;;;;;;;;;;4963016;28;20483;-65
2023/03/18 12:56:04;;;;;;;16.08;4.40;;;;;;;;;;4957508;28;20034;-67
2023/03/18 12:58:36;;;;;;;17.25;5.43;;;;;;;;;;4954085;28;20363;-66
2023/03/18 13:01:18;;;;;;;17.58;5.45;;;;;;;;;;4963221;28;20041;-66
2023/03/18 13:03:51;;;;;;;14.57;5.32;;;;;;;;;;4958591;28;20097;-67
2023/03/18 13:06:36;;;;;;;13.93;4.38;;;;;;;;;;4959144;28;20049;-66
2023/03/18 13:09:17;;;;;;;14.18;4.45;;;;;;;;;;4959676;28;20542;-66
2023/03/18 13:11:44;;;;;;;15.18;4.90;;;;;;;;;;4962695;28;20081;-66
2023/03/18 13:14:29;;;;;;;15.52;4.88;;;;;;;;;;4964876;28;20260;-66
2023/03/18 13:16:58;;;;;;;15.70;5.95;;;;;;;;;;4975777;28;20023;-66
2023/03/18 13:19:26;;;;;;;13.13;4.47;;;;;;;;;;4976815;28;20026;-65
2023/03/18 13:22:11;;;;;;;14.18;4.25;;;;;;;;;;4980418;28;20037;-66
2023/03/18 13:25:11;;;;;;;14.63;5.50;;;;;;;;;;4978218;28;20037;-66
2023/03/18 13:27:56;;;;;;;14.65;4.78;;;;;;;;;;4932896;28;20058;-66
2023/03/18 13:30:42;;;;;;;13.50;4.60;;;;;;;;;;4933605;28;20070;-66
2023/03/18 13:33:23;;;;;;;14.40;4.17;;;;;;;;;;4937822;28;20043;-66
2023/03/18 13:36:09;;;;;;;17.38;4.45;;;;;;;;;;4934479;28;20281;-65
2023/03/18 13:38:37;;;;;;;;;;;;;;;;;;4934733;28;20046;-65
2023/03/18 13:41:24;;;;;;;14.52;3.85;;;;;;;;;;4938306;28;19914;-65
2023/03/18 13:43:51;;;;;;;16.00;4.57;;;;;;;;;;4936307;28;20477;-65
2023/03/18 13:46:26;;;;;;;13.38;4.05;;;;;;;;;;4923194;28;20038;-66
2023/03/18 13:48:57;;;;;;;14.90;4.32;;;;;;;;;;4936243;28;20557;-65
2023/03/18 13:51:23;;;;;;;14.55;4.35;;;;;;;;;;4931345;28;20117;-64
2023/03/18 13:53:51;;;;;;;13.13;4.05;;;;;;;;;;4919810;28;20965;-64
2023/03/18 13:56:39;;;;;;;15.13;4.95;;;;;;;;;;4933712;28;20066;-65
2023/03/18 13:59:07;;;;;;;15.60;5.10;;;;;;;;;;4917224;28;20283;-65
2023/03/18 14:01:35;;;;;;;17.35;7.20;;;;;;;;;;4917557;28;20537;-66
2023/03/18 14:04:21;;;;;;;18.80;4.10;;;;;;;;;;4952939;28;20414;-66
2023/03/18 14:06:55;;;;;;;13.45;4.18;;;;;;;;;;4977536;28;20104;-65
2023/03/18 14:09:32;;;;;;;13.35;4.10;;;;;;;;;;4959154;28;20500;-67
2023/03/18 14:12:18;;;;;;;18.05;4.07;;;;;;;;;;4975951;28;20053;-66
2023/03/18 14:14:51;;;;;;;16.42;4.30;;;;;;;;;;4972258;28;20040;-65
2023/03/18 14:17:44;;;;;;;14.32;4.65;;;;;;;;;;4957052;28;20445;-66
2023/03/18 14:20:16;;;;;;;16.42;5.65;;;;;;;;;;4968781;28;20038;-65
2023/03/18 14:22:44;;;;;;;12.93;3.92;;;;;;;;;;4973837;28;20042;-65
2023/03/18 14:25:19;;;;;;;14.15;4.05;;;;;;;;;;4978596;28;20064;-65
2023/03/18 14:27:53;;;;;;;12.93;3.45;;;;;;;;;;4977372;28;20378;-65
2023/03/18 14:30:41;;;;;;;13.20;3.42;;;;;;;;;;4955378;28;20030;-65
2023/03/18 14:33:22;;;;;;;12.38;3.33;;;;;;;;;;4953008;28;20054;-66
2023/03/18 14:35:58;;;;;;;12.20;3.97;;;;;;;;;;4935685;28;20528;-67
2023/03/18 14:38:27;;;;;;;13.55;3.35;;;;;;;;;;4910907;28;20035;-65
2023/03/18 14:40:55;;;;;;;10.70;3.10;;;;;;;;;;4939135;28;20461;-66
2023/03/18 14:43:28;;;;;;;12.60;3.90;;;;;;;;;;4935629;28;20539;-66
2023/03/18 14:46:00;;;;;;;13.63;3.42;;;;;;;;;;4917073;28;20042;-65
2023/03/18 14:48:33;;;;;;;13.05;3.85;;;;;;;;;;4934339;28;20043;-65
2023/03/18 14:51:07;;;;;;;11.95;3.50;;;;;;;;;;4922045;28;20126;-67
2023/03/18 14:53:53;;;;;;;13.90;3.40;;;;;;;;;;4920153;28;20041;-66
2023/03/18 14:56:22;;;;;;;10.68;2.80;;;;;;;;;;4939888;28;20402;-65